Time;durP1;ratioP1;P1;durP2;ratioP2;P2;SDS_P1;SDS_P2;PMS_P1;PMS_P2;Temp;Humidity;BMP_temperature;BMP_pressure;BME280_temperature;BME280_humidity;BME280_pressure;Samples;Min_cycle;Max_cycle;Signal;HPM_P1;HPM_P2
2023/05/18 00:02:22;;;;;;;8.27;4.95;;;7.10;71.20;;;;;;5036521;28;20033;-73
2023/05/18 00:04:48;;;;;;;9.38;5.25;;;7.10;71.30;;;;;;5034963;28;20078;-77
2023/05/18 00:07:14;;;;;;;7.35;5.15;;;7.10;71.30;;;;;;5035843;28;20029;-74
2023/05/18 00:09:40;;;;;;;8.43;4.78;;;7.10;71.30;;;;;;5035534;28;20025;-73
2023/05/18 00:12:07;;;;;;;9.50;5.00;;;7.10;71.30;;;;;;5034087;28;20040;-73
2023/05/18 00:14:33;;;;;;;9.82;4.93;;;7.00;71.30;;;;;;5033992;28;20124;-76
2023/05/18 00:17:00;;;;;;;11.35;5.88;;;7.00;71.50;;;;;;5034128;28;20075;-72
2023/05/18 00:19:27;;;;;;;8.82;5.22;;;6.90;71.60;;;;;;5033934;28;20021;-73
2023/05/18 00:21:54;;;;;;;7.85;5.25;;;6.80;71.80;;;;;;5034151;28;20034;-73
2023/05/18 00:24:20;;;;;;;10.45;5.72;;;6.80;72.10;;;;;;5032537;28;20112;-73
2023/05/18 00:26:48;;;;;;;7.68;5.20;;;6.90;72.20;;;;;;5033830;28;20120;-73
2023/05/18 00:29:14;;;;;;;8.73;6.00;;;6.80;72.20;;;;;;5033815;28;20021;-73
2023/05/18 00:31:41;;;;;;;9.85;5.93;;;6.80;72.20;;;;;;5033692;28;20027;-72
2023/05/18 00:34:10;;;;;;;8.65;5.97;;;6.80;72.40;;;;;;5033694;28;20021;-73
2023/05/18 00:36:36;;;;;;;8.65;5.65;;;6.70;72.80;;;;;;5033735;28;20470;-73
2023/05/18 00:39:03;;;;;;;9.38;5.53;;;6.80;72.70;;;;;;5033672;28;20061;-73
2023/05/18 00:41:29;;;;;;;11.38;6.18;;;6.80;72.80;;;;;;5032556;28;20026;-72
2023/05/18 00:43:56;;;;;;;10.70;6.13;;;6.80;72.80;;;;;;5033593;28;20029;-73
2023/05/18 00:46:23;;;;;;;8.50;5.35;;;6.80;72.70;;;;;;5035244;28;20057;-72
2023/05/18 00:48:50;;;;;;;6.80;4.55;;;6.70;72.40;;;;;;5033542;28;20381;-73
2023/05/18 00:51:19;;;;;;;5.68;5.00;;;6.60;72.40;;;;;;5033465;28;20413;-73
2023/05/18 00:53:46;;;;;;;7.68;5.15;;;6.60;72.70;;;;;;5033289;28;20378;-73
2023/05/18 00:56:11;;;;;;;9.32;5.10;;;6.50;72.70;;;;;;5033240;28;20429;-73
2023/05/18 00:58:38;;;;;;;6.88;4.75;;;6.50;73.10;;;;;;5033404;28;20018;-73
2023/05/18 01:01:04;;;;;;;8.02;5.00;;;6.50;73.20;;;;;;5033726;28;20033;-75
2023/05/18 01:03:38;;;;;;;9.20;4.82;;;6.40;73.10;;;;;;5033822;28;20079;-73
2023/05/18 01:06:08;;;;;;;8.85;5.60;;;6.40;73.30;;;;;;5033172;28;20398;-74
2023/05/18 01:08:34;;;;;;;8.30;5.95;;;6.50;73.50;;;;;;5033893;28;20049;-73
2023/05/18 01:11:30;;;;;;;9.82;5.72;;;6.50;73.30;;;;;;5035238;28;20025;-74
2023/05/18 01:14:11;;;;;;;7.07;5.30;;;6.40;73.30;;;;;;5034683;28;20052;-79
2023/05/18 01:17:21;;;;;;;10.23;5.20;;;6.40;73.60;;;;;;5033391;28;20414;-73
2023/05/18 01:20:05;;;;;;;9.85;5.60;;;6.50;73.70;;;;;;5021856;28;20401;-73
2023/05/18 01:22:49;;;;;;;7.45;5.03;;;6.40;73.40;;;;;;5034977;28;20017;-73
2023/05/18 01:25:39;;;;;;;8.40;5.35;;;6.40;73.20;;;;;;5035578;28;20045;-73
2023/05/18 01:28:12;;;;;;;6.72;4.93;;;6.30;73.20;;;;;;5035743;28;20021;-86
2023/05/18 01:30:40;;;;;;;9.15;5.28;;;6.30;73.30;;;;;;5033475;28;20045;-74
2023/05/18 01:33:08;;;;;;;7.22;4.68;;;6.10;73.80;;;;;;5033218;28;20099;-73
2023/05/18 01:35:37;;;;;;;7.80;5.35;;;6.10;73.70;;;;;;5033037;28;20037;-73
2023/05/18 01:38:03;;;;;;;7.22;4.78;;;6.10;73.90;;;;;;5032987;28;20021;-73
2023/05/18 01:41:02;;;;;;;8.57;5.40;;;6.10;73.80;;;;;;5033213;28;20037;-77
2023/05/18 01:43:33;;;;;;;8.05;5.70;;;6.00;73.80;;;;;;5033027;28;20067;-72
2023/05/18 01:46:07;;;;;;;10.05;6.15;;;6.00;74.10;;;;;;5033016;28;20143;-73
2023/05/18 01:48:36;;;;;;;6.45;5.00;;;6.00;73.90;;;;;;5032896;28;20029;-75
2023/05/18 01:51:03;;;;;;;8.27;5.07;;;5.90;74.00;;;;;;5032857;28;20022;-73
2023/05/18 01:53:40;;;;;;;5.75;4.43;;;5.90;74.00;;;;;;5033049;28;20393;-74
2023/05/18 01:56:07;;;;;;;9.68;4.93;;;5.90;74.00;;;;;;5031671;28;20079;-73
2023/05/18 01:58:35;;;;;;;7.90;4.97;;;5.80;74.00;;;;;;5031594;28;20026;-73
2023/05/18 02:01:01;;;;;;;7.88;4.45;;;5.80;74.00;;;;;;5033097;28;20659;-73
2023/05/18 02:03:27;;;;;;;5.95;4.50;;;5.80;73.80;;;;;;5032793;28;20021;-73
2023/05/18 02:05:52;;;;;;;11.43;5.13;;;5.80;73.70;;;;;;5032501;28;20066;-72
2023/05/18 02:08:18;;;;;;;7.53;5.18;;;5.80;74.00;;;;;;5033204;28;20061;-72
2023/05/18 02:10:43;;;;;;;8.95;5.68;;;5.70;74.00;;;;;;5036378;28;20505;-72
2023/05/18 02:13:09;;;;;;;8.73;4.90;;;5.70;74.20;;;;;;5036499;28;20030;-72
2023/05/18 02:15:35;;;;;;;9.20;5.38;;;5.70;74.20;;;;;;5036396;28;20620;-72
2023/05/18 02:18:01;;;;;;;10.43;5.40;;;5.60;74.40;;;;;;5036500;28;20021;-72
2023/05/18 02:20:31;;;;;;;8.18;5.05;;;5.60;74.50;;;;;;5036448;28;20480;-73
2023/05/18 02:22:57;;;;;;;7.05;4.90;;;5.60;74.60;;;;;;5036409;28;20022;-72
2023/05/18 02:25:22;;;;;;;8.63;5.10;;;5.60;75.20;;;;;;5036145;28;20079;-72
2023/05/18 02:27:48;;;;;;;10.13;5.40;;;5.60;74.90;;;;;;5036357;28;20021;-72
2023/05/18 02:30:14;;;;;;;9.48;5.60;;;5.50;74.90;;;;;;5034902;28;20034;-72
2023/05/18 02:32:41;;;;;;;8.27;5.32;;;5.40;75.20;;;;;;5036213;28;20022;-72
2023/05/18 02:35:07;;;;;;;8.18;5.60;;;5.50;75.60;;;;;;5036108;28;20021;-80
2023/05/18 02:37:38;;;;;;;7.68;5.03;;;5.50;75.70;;;;;;5036182;28;20029;-72
2023/05/18 02:40:11;;;;;;;8.60;5.68;;;5.50;75.50;;;;;;5036040;28;20112;-72
2023/05/18 02:42:37;;;;;;;6.50;4.45;;;5.50;75.00;;;;;;5036162;28;20021;-72
2023/05/18 02:45:03;;;;;;;10.15;5.10;;;5.60;75.00;;;;;;5035905;28;20432;-72
2023/05/18 02:47:28;;;;;;;7.20;4.82;;;5.50;74.80;;;;;;5035934;28;20077;-76
2023/05/18 02:49:54;;;;;;;8.13;4.50;;;5.40;74.80;;;;;;5036002;28;20041;-80
2023/05/18 02:52:20;;;;;;;8.52;5.10;;;5.40;74.50;;;;;;5036262;28;20032;-74
2023/05/18 02:54:45;;;;;;;6.95;5.40;;;5.40;74.80;;;;;;5035956;28;20018;-74
2023/05/18 02:57:12;;;;;;;8.93;5.00;;;5.30;75.00;;;;;;5035878;28;20025;-77
2023/05/18 02:59:38;;;;;;;7.95;4.55;;;5.20;74.70;;;;;;5036120;28;20047;-79
2023/05/18 03:02:04;;;;;;;8.75;4.63;;;5.20;74.90;;;;;;5035916;28;20100;-74
2023/05/18 03:04:30;;;;;;;7.85;4.57;;;5.20;75.20;;;;;;5035714;28;20017;-73
2023/05/18 03:06:57;;;;;;;10.48;5.47;;;5.30;75.40;;;;;;5035885;28;20367;-72
2023/05/18 03:09:22;;;;;;;7.47;4.88;;;5.30;75.20;;;;;;5035765;28;20024;-72
2023/05/18 03:11:49;;;;;;;6.15;4.68;;;5.30;75.00;;;;;;5035328;28;20025;-72
2023/05/18 03:14:14;;;;;;;7.05;4.88;;;5.30;74.90;;;;;;5035345;28;20389;-72
2023/05/18 03:16:40;;;;;;;9.50;5.10;;;5.30;74.80;;;;;;5035185;28;20108;-72
2023/05/18 03:19:06;;;;;;;6.72;4.75;;;5.30;74.90;;;;;;5035149;28;20112;-72
2023/05/18 03:21:35;;;;;;;6.72;5.10;;;5.20;75.00;;;;;;5033892;28;20103;-72
2023/05/18 03:24:04;;;;;;;7.13;5.05;;;5.20;74.80;;;;;;5035126;28;20017;-72
2023/05/18 03:26:32;;;;;;;8.57;4.90;;;5.20;74.90;;;;;;5034951;28;20052;-72
2023/05/18 03:28:58;;;;;;;6.85;4.90;;;5.10;75.20;;;;;;5035075;28;20028;-73
2023/05/18 03:31:24;;;;;;;13.63;5.88;;;5.10;75.40;;;;;;5035012;28;20470;-72
2023/05/18 03:33:50;;;;;;;7.10;5.10;;;5.10;75.20;;;;;;5034835;28;20021;-72
2023/05/18 03:36:15;;;;;;;7.80;5.25;;;5.00;75.40;;;;;;5034978;28;20029;-72
2023/05/18 03:38:44;;;;;;;7.50;5.15;;;5.00;75.70;;;;;;5035031;28;20032;-75
2023/05/18 03:41:10;;;;;;;8.63;4.90;;;5.00;75.80;;;;;;5035030;28;20538;-72
2023/05/18 03:43:36;;;;;;;8.35;4.65;;;5.00;75.90;;;;;;5040493;28;20036;-82
2023/05/18 03:46:02;;;;;;;6.75;5.00;;;5.00;75.70;;;;;;5053218;28;20041;-78
2023/05/18 03:48:27;;;;;;;7.93;4.93;;;5.00;75.60;;;;;;5055175;28;20017;-82
2023/05/18 03:50:53;;;;;;;8.57;4.57;;;4.90;75.30;;;;;;5047068;28;20047;-83
2023/05/18 03:53:20;;;;;;;10.20;4.90;;;4.90;75.20;;;;;;5040416;28;20025;-83
2023/05/18 03:55:48;;;;;;;7.65;4.95;;;4.90;75.20;;;;;;5042378;28;20021;-87
2023/05/18 03:58:13;;;;;;;6.93;4.75;;;5.00;75.20;;;;;;5044558;28;20029;-86
2023/05/18 04:00:41;;;;;;;8.10;5.10;;;5.00;76.00;;;;;;5042932;28;20025;-81
2023/05/18 04:03:11;;;;;;;6.60;4.95;;;5.00;74.80;;;;;;5047314;28;20018;-76
2023/05/18 04:05:37;;;;;;;8.52;5.00;;;5.00;74.50;;;;;;5058020;28;20109;-80
2023/05/18 04:08:03;;;;;;;7.90;4.90;;;5.00;74.50;;;;;;5057976;28;20005;-78
2023/05/18 04:10:29;;;;;;;8.98;4.72;;;5.00;74.50;;;;;;5043863;28;20028;-71
2023/05/18 04:12:55;;;;;;;8.85;5.05;;;5.00;74.60;;;;;;5039150;28;20030;-72
2023/05/18 04:15:21;;;;;;;7.78;5.20;;;4.90;74.70;;;;;;5034637;28;20029;-73
2023/05/18 04:17:49;;;;;;;5.47;4.68;;;4.90;74.90;;;;;;5036009;28;20021;-73
2023/05/18 04:20:15;;;;;;;8.23;4.60;;;5.00;74.90;;;;;;5035830;28;20382;-74
2023/05/18 04:22:47;;;;;;;8.82;5.28;;;5.10;75.10;;;;;;5034260;28;20030;-73
2023/05/18 04:25:16;;;;;;;10.02;5.82;;;5.10;74.60;;;;;;5034109;28;20029;-74
2023/05/18 04:27:44;;;;;;;6.60;5.60;;;5.20;74.10;;;;;;5034389;28;20116;-73
2023/05/18 04:30:10;;;;;;;8.70;5.95;;;5.20;74.20;;;;;;5039916;28;20051;-83
2023/05/18 04:32:37;;;;;;;6.35;5.13;;;5.20;74.20;;;;;;5041299;28;20057;-86
2023/05/18 04:35:05;;;;;;;8.90;6.25;;;5.20;74.20;;;;;;5041756;28;20040;-85
2023/05/18 04:37:31;;;;;;;7.40;5.78;;;5.30;74.10;;;;;;5037593;28;20029;-86
2023/05/18 04:39:57;;;;;;;8.88;6.82;;;5.40;73.70;;;;;;5034851;28;20048;-85
2023/05/18 04:42:26;;;;;;;6.70;5.95;;;5.50;73.50;;;;;;5034563;28;20060;-82
2023/05/18 04:44:53;;;;;;;8.75;5.85;;;5.60;73.40;;;;;;5034881;28;20085;-86
2023/05/18 04:47:20;;;;;;;7.70;5.35;;;5.70;73.10;;;;;;5033902;28;20049;-85
2023/05/18 04:49:47;;;;;;;8.15;5.00;;;5.80;72.80;;;;;;5032633;28;20026;-85
2023/05/18 04:52:13;;;;;;;9.00;4.45;;;5.90;72.50;;;;;;5033610;28;20445;-84
2023/05/18 04:54:40;;;;;;;9.45;5.28;;;6.00;72.30;;;;;;5033705;28;20026;-85
2023/05/18 04:57:06;;;;;;;5.20;4.60;;;6.00;72.10;;;;;;5034109;28;20045;-87
2023/05/18 04:59:35;;;;;;;7.95;5.43;;;6.10;72.00;;;;;;5034028;28;20040;-87
2023/05/18 05:02:04;;;;;;;8.23;5.55;;;6.20;71.70;;;;;;5034209;28;20018;-86
2023/05/18 05:04:30;;;;;;;9.85;5.25;;;6.20;71.70;;;;;;5032356;28;20026;-76
2023/05/18 05:06:55;;;;;;;10.20;5.45;;;6.30;71.70;;;;;;5033254;28;20394;-84
2023/05/18 05:09:21;;;;;;;8.95;5.22;;;6.30;71.60;;;;;;5033819;28;20021;-77
2023/05/18 05:11:46;;;;;;;6.97;5.35;;;6.40;71.50;;;;;;5033410;28;20051;-85
2023/05/18 05:14:12;;;;;;;9.18;5.93;;;6.50;71.20;;;;;;5034277;28;20071;-74
2023/05/18 05:16:38;;;;;;;9.30;6.35;;;6.60;71.40;;;;;;5033232;28;20382;-85
2023/05/18 05:19:04;;;;;;;18.27;10.43;;;6.70;71.00;;;;;;5034472;28;20021;-87
2023/05/18 05:21:30;;;;;;;21.15;12.85;;;6.80;70.60;;;;;;5034017;28;20029;-85
2023/05/18 05:23:56;;;;;;;26.58;16.60;;;6.80;70.20;;;;;;5033708;28;20482;-88
2023/05/18 05:26:21;;;;;;;21.20;13.23;;;6.90;70.40;;;;;;5033895;28;20064;-82
2023/05/18 05:28:47;;;;;;;16.20;10.85;;;6.90;70.90;;;;;;5034891;28;20022;-82
2023/05/18 05:31:13;;;;;;;12.52;9.90;;;7.00;70.80;;;;;;5031590;28;20116;-73
2023/05/18 05:33:39;;;;;;;11.85;8.98;;;7.10;70.80;;;;;;5032978;28;20029;-85
2023/05/18 05:36:05;;;;;;;15.77;9.07;;;7.10;71.30;;;;;;5032620;28;20056;-76
2023/05/18 05:38:31;;;;;;;11.77;7.95;;;7.20;70.80;;;;;;5032265;28;20526;-77
2023/05/18 05:40:57;;;;;;;14.77;8.77;;;7.30;70.70;;;;;;5032399;28;20367;-81
2023/05/18 05:43:22;;;;;;;15.18;9.77;;;7.30;70.60;;;;;;5032966;28;20486;-83
2023/05/18 05:45:48;;;;;;;16.02;9.73;;;7.30;70.70;;;;;;5036106;28;20116;-83
2023/05/18 05:48:14;;;;;;;13.10;8.88;;;7.30;70.70;;;;;;5001473;28;1028453;-83
2023/05/18 05:50:39;;;;;;;12.90;9.27;;;7.30;71.40;;;;;;5037419;28;20037;-83
2023/05/18 05:53:05;;;;;;;18.67;9.48;;;7.30;71.20;;;;;;5037259;28;20458;-72
2023/05/18 05:55:30;;;;;;;12.68;8.60;;;7.40;70.90;;;;;;5036500;28;20032;-72
2023/05/18 05:57:56;;;;;;;21.95;9.68;;;7.30;71.70;;;;;;5036785;28;20022;-81
2023/05/18 06:00:23;;;;;;;15.98;9.88;;;7.20;71.80;;;;;;5036933;28;20056;-72
2023/05/18 06:02:48;;;;;;;15.55;10.10;;;7.20;71.70;;;;;;5035253;28;20112;-81
2023/05/18 06:05:14;;;;;;;15.20;9.98;;;7.30;71.80;;;;;;5036814;28;20438;-78
2023/05/18 06:07:40;;;;;;;12.35;9.25;;;7.30;72.40;;;;;;5036916;28;20029;-77
2023/05/18 06:10:07;;;;;;;15.05;10.02;;;7.50;72.20;;;;;;5036667;28;20021;-80
2023/05/18 06:12:32;;;;;;;17.30;10.02;;;7.40;72.40;;;;;;5037176;28;20029;-82
2023/05/18 06:14:58;;;;;;;19.05;10.85;;;7.30;73.30;;;;;;5036847;28;20021;-82
2023/05/18 06:17:27;;;;;;;14.20;10.63;;;7.30;73.40;;;;;;5036612;28;20110;-73
2023/05/18 06:19:55;;;;;;;16.10;10.13;;;7.40;73.70;;;;;;5036236;28;20032;-72
2023/05/18 06:22:21;;;;;;;13.05;9.52;;;7.30;73.90;;;;;;5036274;28;20462;-79
2023/05/18 06:24:47;;;;;;;14.68;10.65;;;7.40;74.10;;;;;;5034616;28;20029;-79
2023/05/18 06:27:12;;;;;;;15.27;10.25;;;7.60;73.30;;;;;;5035432;28;20056;-79
2023/05/18 06:29:38;;;;;;;14.85;10.15;;;7.50;74.20;;;;;;5037718;28;20025;-84
2023/05/18 06:32:04;;;;;;;16.15;10.18;;;7.50;74.20;;;;;;5039148;28;20025;-82
2023/05/18 06:34:30;;;;;;;17.70;10.10;;;7.70;73.50;;;;;;5037836;28;20029;-81
2023/05/18 06:36:55;;;;;;;19.60;13.05;;;7.60;73.80;;;;;;5039203;28;20220;-86
2023/05/18 06:39:21;;;;;;;18.10;9.90;;;7.70;73.50;;;;;;5037650;28;20029;-86
2023/05/18 06:41:46;;;;;;;13.55;10.05;;;7.80;73.50;;;;;;5037622;28;20025;-80
2023/05/18 06:44:13;;;;;;;13.90;10.00;;;7.80;74.40;;;;;;5037076;28;20374;-86
2023/05/18 06:46:40;;;;;;;13.73;9.10;;;7.60;74.40;;;;;;5037747;28;20486;-85
2023/05/18 06:49:05;;;;;;;17.63;9.73;;;7.70;74.70;;;;;;5037911;28;20033;-87
2023/05/18 06:51:31;;;;;;;12.43;9.13;;;7.90;74.10;;;;;;5044918;28;20470;-83
2023/05/18 06:53:57;;;;;;;14.73;8.60;;;8.10;73.50;;;;;;5045704;28;20417;-78
2023/05/18 06:56:23;;;;;;;26.48;13.75;;;8.30;73.00;;;;;;5055018;28;20064;-78
2023/05/18 06:58:48;;;;;;;15.50;8.75;;;8.60;72.00;;;;;;5055856;28;20025;-83
2023/05/18 07:01:14;;;;;;;14.55;7.45;;;8.80;70.60;;;;;;5050232;28;20025;-79
2023/05/18 07:03:39;;;;;;;14.68;8.60;;;9.00;70.20;;;;;;5045172;28;20108;-80
2023/05/18 07:06:05;;;;;;;17.55;7.93;;;9.00;69.90;;;;;;5048008;28;20041;-83
2023/05/18 07:08:31;;;;;;;15.00;7.55;;;9.10;69.10;;;;;;5050942;28;20416;-80
2023/05/18 07:10:58;;;;;;;17.70;7.80;;;9.20;69.20;;;;;;5039764;28;20033;-84
2023/05/18 07:13:24;;;;;;;17.90;7.50;;;9.10;69.10;;;;;;5035656;28;20017;-80
2023/05/18 07:15:50;;;;;;;16.83;7.40;;;9.20;68.30;;;;;;5036496;28;20032;-82
2023/05/18 07:18:15;;;;;;;14.82;6.90;;;9.20;68.70;;;;;;5035388;28;20018;-81
2023/05/18 07:20:41;;;;;;;11.35;6.13;;;9.40;70.10;;;;;;5035120;28;20037;-73
2023/05/18 07:23:06;;;;;;;12.25;6.88;;;9.80;69.70;;;;;;5034878;28;20044;-73
2023/05/18 07:25:32;;;;;;;18.02;6.95;;;9.90;66.60;;;;;;5034672;28;20053;-75
2023/05/18 07:27:58;;;;;;;14.57;6.18;;;10.10;67.40;;;;;;5034891;28;20419;-81
2023/05/18 07:30:25;;;;;;;11.93;6.95;;;10.40;66.20;;;;;;5034696;28;20047;-79
2023/05/18 07:32:51;;;;;;;21.02;6.47;;;10.50;64.20;;;;;;5034386;28;20025;-81
2023/05/18 07:35:19;;;;;;;17.13;6.97;;;10.90;72.00;;;;;;5034751;28;20488;-73
2023/05/18 07:37:44;;;;;;;11.35;6.10;;;11.50;68.30;;;;;;5034779;28;20056;-74
2023/05/18 07:40:11;;;;;;;12.52;5.82;;;12.00;64.70;;;;;;5034615;28;20053;-73
2023/05/18 07:42:38;;;;;;;12.00;6.45;;;12.40;62.20;;;;;;5034517;28;20025;-76
2023/05/18 07:45:04;;;;;;;14.23;5.75;;;12.40;59.00;;;;;;5034378;28;20018;-75
2023/05/18 07:47:30;;;;;;;12.82;5.57;;;12.60;58.90;;;;;;5034267;28;20057;-75
2023/05/18 07:49:55;;;;;;;13.18;5.90;;;12.80;58.10;;;;;;5034392;28;20026;-76
2023/05/18 07:52:21;;;;;;;12.80;5.82;;;13.00;60.50;;;;;;5033563;28;20040;-75
2023/05/18 07:54:47;;;;;;;16.48;6.00;;;13.10;57.70;;;;;;5034846;28;20363;-81
2023/05/18 07:57:12;;;;;;;10.32;5.25;;;13.20;57.00;;;;;;5038007;28;20091;-73
2023/05/18 07:59:38;;;;;;;14.88;5.80;;;13.40;58.60;;;;;;5035783;28;20029;-73
2023/05/18 08:02:04;;;;;;;12.93;5.65;;;13.60;56.40;;;;;;5042464;28;20010;-75
2023/05/18 08:04:30;;;;;;;9.95;5.18;;;13.60;54.70;;;;;;5034872;28;20034;-76
2023/05/18 08:06:59;;;;;;;8.27;3.80;;;13.60;55.60;;;;;;5033773;28;20056;-79
2023/05/18 08:09:27;;;;;;;11.32;4.05;;;13.70;56.60;;;;;;5034440;28;20040;-75
2023/05/18 08:11:53;;;;;;;7.47;3.95;;;14.00;51.90;;;;;;5034355;28;20029;-73
2023/05/18 08:14:19;;;;;;;14.13;4.10;;;14.20;50.70;;;;;;5034377;28;20025;-77
2023/05/18 08:16:44;;;;;;;13.88;3.97;;;14.50;48.30;;;;;;5034454;28;20017;-76
2023/05/18 08:19:10;;;;;;;12.75;3.70;;;14.60;48.20;;;;;;5034279;28;20116;-73
2023/05/18 08:21:35;;;;;;;11.20;4.07;;;14.60;45.30;;;;;;5034611;28;20021;-73
2023/05/18 08:24:06;;;;;;;8.63;4.10;;;14.60;46.00;;;;;;5034260;28;20083;-72
2023/05/18 08:26:31;;;;;;;13.85;3.90;;;14.50;44.00;;;;;;5033885;28;20041;-78
2023/05/18 08:28:57;;;;;;;14.40;4.30;;;14.50;45.50;;;;;;5034007;28;20390;-74
2023/05/18 08:31:22;;;;;;;9.30;3.80;;;14.50;46.00;;;;;;5033597;28;20079;-81
2023/05/18 08:33:48;;;;;;;12.77;4.43;;;14.70;46.60;;;;;;5032438;28;20014;-75
2023/05/18 08:36:14;;;;;;;9.45;4.18;;;14.70;45.40;;;;;;5033692;28;20080;-75
2023/05/18 08:38:41;;;;;;;10.20;4.38;;;14.60;45.10;;;;;;5033792;28;20029;-72
2023/05/18 08:41:20;;;;;;;12.30;3.97;;;14.70;46.10;;;;;;5032285;28;20115;-73
2023/05/18 08:43:51;;;;;;;9.30;3.88;;;14.90;46.40;;;;;;5030925;28;20478;-76
2023/05/18 08:46:20;;;;;;;11.10;4.72;;;15.00;45.30;;;;;;5029376;28;20116;-74
2023/05/18 08:48:46;;;;;;;11.93;3.83;;;14.90;43.40;;;;;;5029726;28;20030;-73
2023/05/18 08:51:15;;;;;;;10.02;4.05;;;14.80;44.50;;;;;;5032099;28;20024;-72
2023/05/18 08:53:42;;;;;;;9.98;3.92;;;14.80;44.10;;;;;;5031777;28;20048;-74
2023/05/18 08:56:10;;;;;;;11.27;3.92;;;14.80;43.70;;;;;;5032088;28;20029;-74
2023/05/18 08:58:43;;;;;;;8.80;3.88;;;14.90;45.80;;;;;;5032402;28;20370;-73
2023/05/18 09:01:09;;;;;;;10.00;3.72;;;15.20;46.50;;;;;;5032264;28;20025;-76
2023/05/18 09:03:36;;;;;;;10.77;4.30;;;15.30;44.80;;;;;;5032355;28;20013;-75
2023/05/18 09:06:03;;;;;;;9.52;4.32;;;15.20;43.50;;;;;;5033185;28;20037;-75
2023/05/18 09:08:29;;;;;;;8.63;3.47;;;15.10;43.20;;;;;;5033439;28;20452;-78
2023/05/18 09:10:57;;;;;;;7.13;3.22;;;14.90;43.20;;;;;;5033319;28;20022;-76
2023/05/18 09:13:23;;;;;;;9.82;4.40;;;14.70;44.10;;;;;;5032966;28;20024;-74
2023/05/18 09:15:50;;;;;;;10.82;4.00;;;14.60;44.60;;;;;;5032751;28;20029;-72
2023/05/18 09:18:15;;;;;;;9.85;3.60;;;14.70;45.40;;;;;;5033247;28;20014;-74
2023/05/18 09:20:41;;;;;;;10.57;3.75;;;15.00;45.40;;;;;;5032446;28;20638;-73
2023/05/18 09:23:07;;;;;;;10.57;3.95;;;15.20;45.40;;;;;;5032911;28;20048;-73
2023/05/18 09:25:34;;;;;;;6.78;3.38;;;15.40;43.60;;;;;;5032843;28;20029;-76
2023/05/18 09:28:02;;;;;;;11.93;4.03;;;15.60;44.40;;;;;;5033050;28;20055;-72
2023/05/18 09:30:27;;;;;;;9.77;3.80;;;15.80;42.50;;;;;;5033318;28;20475;-75
2023/05/18 09:32:53;;;;;;;9.50;3.70;;;16.00;42.40;;;;;;5033258;28;20076;-82
2023/05/18 09:35:19;;;;;;;11.73;4.00;;;16.10;42.50;;;;;;5032204;28;20494;-77
2023/05/18 09:37:45;;;;;;;8.98;4.30;;;16.20;41.60;;;;;;5033229;28;20032;-82
2023/05/18 09:40:10;;;;;;;19.10;10.48;;;16.30;42.00;;;;;;5032903;28;20026;-83
2023/05/18 09:42:37;;;;;;;10.57;3.65;;;16.40;42.40;;;;;;5032239;28;20374;-83
2023/05/18 09:45:18;;;;;;;6.93;3.58;;;16.40;40.60;;;;;;5031545;28;20014;-83
2023/05/18 09:47:47;;;;;;;7.07;3.65;;;16.30;40.10;;;;;;5029007;28;20128;-82
2023/05/18 09:50:13;;;;;;;9.25;3.58;;;16.10;40.40;;;;;;5031736;28;20017;-84
2023/05/18 09:52:42;;;;;;;9.45;3.25;;;16.00;40.60;;;;;;5031640;28;20425;-79
2023/05/18 09:55:10;;;;;;;9.60;3.40;;;16.00;41.40;;;;;;5031734;28;20028;-80
2023/05/18 09:57:41;;;;;;;6.65;3.72;;;15.90;40.90;;;;;;5031533;28;20021;-76
2023/05/18 10:00:11;;;;;;;11.10;3.05;;;15.80;40.20;;;;;;5031345;28;20539;-81
2023/05/18 10:02:42;;;;;;;7.50;3.63;;;15.90;40.10;;;;;;5028114;28;20036;-80
2023/05/18 10:05:26;;;;;;;8.00;3.28;;;16.00;40.10;;;;;;5031264;28;20013;-75
2023/05/18 10:07:55;;;;;;;8.98;3.92;;;16.30;40.50;;;;;;5031061;28;20029;-73
2023/05/18 10:10:24;;;;;;;4.88;2.72;;;16.40;39.50;;;;;;5030895;28;20470;-74
2023/05/18 10:12:51;;;;;;;13.60;6.50;;;16.70;39.20;;;;;;5030843;28;20436;-76
2023/05/18 10:15:19;;;;;;;12.25;5.80;;;17.00;38.90;;;;;;5029628;28;20069;-76
2023/05/18 10:17:47;;;;;;;6.70;3.35;;;17.30;39.40;;;;;;5028716;28;20057;-81
2023/05/18 10:20:18;;;;;;;6.78;3.00;;;17.60;38.70;;;;;;5031245;28;20387;-84
2023/05/18 10:22:46;;;;;;;15.23;4.68;;;17.70;37.50;;;;;;5025973;28;20100;-82
2023/05/18 10:25:17;;;;;;;6.30;4.00;;;17.80;36.10;;;;;;5031934;28;20470;-84
2023/05/18 10:27:43;;;;;;;7.70;3.67;;;17.70;36.00;;;;;;5032545;28;20057;-73
2023/05/18 10:30:10;;;;;;;7.07;3.20;;;17.70;36.40;;;;;;5034345;28;20030;-72
2023/05/18 10:32:37;;;;;;;6.90;2.90;;;17.70;37.00;;;;;;5034821;28;20067;-82
2023/05/18 10:35:06;;;;;;;8.82;3.22;;;17.50;36.40;;;;;;5036015;28;20029;-84
2023/05/18 10:37:34;;;;;;;10.75;3.78;;;17.50;36.50;;;;;;5035662;28;20486;-83
2023/05/18 10:40:01;;;;;;;6.82;3.10;;;17.60;37.40;;;;;;5035976;28;20029;-81
2023/05/18 10:42:29;;;;;;;9.45;5.28;;;17.90;36.80;;;;;;5035850;28;20104;-81
2023/05/18 10:44:56;;;;;;;10.32;3.60;;;18.20;37.00;;;;;;5035362;28;20536;-74
2023/05/18 10:47:26;;;;;;;6.72;3.40;;;18.30;35.10;;;;;;5034374;28;20077;-73
2023/05/18 10:49:53;;;;;;;9.38;3.20;;;18.40;34.90;;;;;;5031795;28;20053;-81
2023/05/18 10:52:19;;;;;;;8.73;2.67;;;18.40;35.00;;;;;;5034464;28;20521;-83
2023/05/18 10:54:45;;;;;;;4.25;2.40;;;18.50;35.20;;;;;;5035623;28;20056;-76
2023/05/18 10:57:16;;;;;;;8.93;3.10;;;18.70;35.20;;;;;;5034403;28;20060;-80
2023/05/18 10:59:43;;;;;;;7.55;3.15;;;18.80;33.50;;;;;;5034631;28;20108;-79
2023/05/18 11:02:15;;;;;;;8.15;2.80;;;18.60;34.10;;;;;;5034951;28;20025;-72
2023/05/18 11:04:41;;;;;;;7.80;3.53;;;18.30;34.30;;;;;;5035290;28;20030;-72
2023/05/18 11:07:11;;;;;;;9.43;3.05;;;18.10;34.40;;;;;;5035028;28;20482;-72
2023/05/18 11:09:41;;;;;;;8.75;3.20;;;18.30;35.30;;;;;;5035237;28;20478;-73
2023/05/18 11:12:16;;;;;;;6.05;2.92;;;18.50;35.60;;;;;;5035323;28;20030;-72
2023/05/18 11:14:53;;;;;;;7.20;3.42;;;18.50;34.10;;;;;;5035400;28;20363;-72
2023/05/18 11:17:28;;;;;;;7.90;3.10;;;18.40;34.30;;;;;;5035046;28;20128;-73
2023/05/18 11:20:03;;;;;;;10.48;2.65;;;18.30;35.70;;;;;;5035133;28;20025;-72
2023/05/18 11:22:47;;;;;;;11.13;3.35;;;18.20;34.40;;;;;;5035268;28;20022;-72
2023/05/18 11:25:31;;;;;;;9.50;3.03;;;18.40;34.80;;;;;;5034777;28;20018;-74
2023/05/18 11:28:05;;;;;;;9.30;3.05;;;18.60;35.10;;;;;;5035083;28;20056;-72
2023/05/18 11:30:35;;;;;;;7.22;2.63;;;18.50;33.80;;;;;;5034872;28;20045;-72
2023/05/18 11:33:11;;;;;;;7.85;2.72;;;18.40;35.10;;;;;;5034915;28;20504;-72
2023/05/18 11:36:10;;;;;;;5.75;2.60;;;18.30;35.20;;;;;;5034861;28;20029;-72
2023/05/18 11:38:55;;;;;;;5.90;2.60;;;18.20;36.90;;;;;;5034690;28;20104;-73
2023/05/18 11:41:31;;;;;;;6.32;2.42;;;18.00;35.00;;;;;;5033318;28;20025;-75
2023/05/18 11:44:15;;;;;;;8.40;3.33;;;17.90;35.30;;;;;;5034479;28;20046;-73
2023/05/18 11:46:53;;;;;;;8.68;3.08;;;17.70;36.90;;;;;;5034340;28;20045;-73
2023/05/18 11:49:21;;;;;;;6.60;2.90;;;17.60;36.60;;;;;;5034491;28;20494;-73
2023/05/18 11:52:06;;;;;;;8.10;3.00;;;17.50;37.60;;;;;;5034526;28;20420;-73
2023/05/18 11:54:43;;;;;;;9.60;2.92;;;17.50;37.60;;;;;;5035061;28;20025;-72
2023/05/18 11:57:09;;;;;;;8.40;3.28;;;17.30;37.60;;;;;;5034517;28;20026;-72
2023/05/18 11:59:43;;;;;;;10.73;2.80;;;17.20;38.60;;;;;;5034128;28;20022;-73
2023/05/18 12:02:10;;;;;;;12.82;3.40;;;17.00;39.20;;;;;;5034357;28;20033;-73
2023/05/18 12:04:49;;;;;;;5.75;2.55;;;17.10;39.60;;;;;;5034236;28;20022;-72
2023/05/18 12:07:16;;;;;;;9.90;3.78;;;17.10;39.90;;;;;;5034425;28;20038;-72
2023/05/18 12:09:43;;;;;;;7.53;3.03;;;17.20;39.00;;;;;;5033520;28;20213;-73
2023/05/18 12:12:10;;;;;;;7.45;2.97;;;17.20;38.80;;;;;;5032849;28;20452;-71
2023/05/18 12:14:44;;;;;;;6.88;3.13;;;17.20;38.60;;;;;;5032707;28;20425;-71
2023/05/18 12:17:10;;;;;;;8.77;3.65;;;17.20;39.40;;;;;;5034283;28;20452;-72
2023/05/18 12:19:43;;;;;;;8.90;3.65;;;17.30;39.60;;;;;;5033763;28;20087;-73
2023/05/18 12:22:11;;;;;;;8.32;3.15;;;17.50;39.60;;;;;;5033930;28;20036;-72
2023/05/18 12:24:41;;;;;;;5.28;2.92;;;17.60;39.60;;;;;;5034088;28;20063;-72
2023/05/18 12:27:08;;;;;;;7.82;2.75;;;17.70;37.70;;;;;;5033853;28;20044;-73
2023/05/18 12:29:37;;;;;;;7.75;3.50;;;17.70;38.10;;;;;;5033062;28;20064;-72
2023/05/18 12:32:08;;;;;;;8.05;3.05;;;17.50;38.20;;;;;;5032397;28;20021;-72
2023/05/18 12:34:34;;;;;;;10.20;3.45;;;17.50;38.10;;;;;;5032408;28;20062;-73
2023/05/18 12:37:00;;;;;;;6.38;2.47;;;17.50;38.30;;;;;;5032812;28;20472;-73
2023/05/18 12:39:25;;;;;;;6.35;2.83;;;17.40;38.70;;;;;;5033594;28;20021;-73
2023/05/18 12:41:51;;;;;;;7.35;2.47;;;17.50;38.80;;;;;;5033025;28;20029;-73
2023/05/18 12:44:16;;;;;;;5.15;2.20;;;17.40;38.60;;;;;;5032288;28;20017;-72
2023/05/18 12:46:42;;;;;;;8.88;2.80;;;17.30;38.80;;;;;;5031911;28;20056;-73
2023/05/18 12:49:08;;;;;;;6.65;2.50;;;17.30;38.50;;;;;;5032011;28;20401;-71
2023/05/18 12:51:35;;;;;;;6.28;2.60;;;17.20;38.60;;;;;;5032091;28;20033;-71
2023/05/18 12:54:02;;;;;;;8.70;2.78;;;17.20;39.00;;;;;;5032414;28;20394;-71